sensor_id;sensor_type;location;lat;lon;timestamp;temperature;humidity
1165;DHT22;571;50.930;6.926;2023-08-30T03:06:49;17.10;99.90
1165;DHT22;571;50.930;6.926;2023-08-30T03:17:18;17.00;99.90
1165;DHT22;571;50.930;6.926;2023-08-30T03:28:12;16.90;99.90
1165;DHT22;571;50.930;6.926;2023-08-30T03:31:40;16.90;99.90
1165;DHT22;571;50.930;6.926;2023-08-30T03:34:51;16.80;99.90
1165;DHT22;571;50.930;6.926;2023-08-30T03:38:11;16.80;99.90
1165;DHT22;571;50.930;6.926;2023-08-30T03:41:45;16.80;99.90
1165;DHT22;571;50.930;6.926;2023-08-30T03:45:37;16.70;99.90
1165;DHT22;571;50.930;6.926;2023-08-30T06:25:43;16.60;99.90
1165;DHT22;571;50.930;6.926;2023-08-30T08:24:53;19.10;95.20
1165;DHT22;571;50.930;6.926;2023-08-30T08:27:39;19.30;95.30
1165;DHT22;571;50.930;6.926;2023-08-30T08:30:39;19.50;94.90
1165;DHT22;571;50.930;6.926;2023-08-30T08:33:20;19.70;94.00
1165;DHT22;571;50.930;6.926;2023-08-30T11:30:36;19.50;99.90
1165;DHT22;571;50.930;6.926;2023-08-30T12:12:04;18.80;99.90
1165;DHT22;571;50.930;6.926;2023-08-30T12:51:35;18.90;99.90
1165;DHT22;571;50.930;6.926;2023-08-30T12:54:51;18.80;99.90
1165;DHT22;571;50.930;6.926;2023-08-30T13:07:16;18.60;99.90
1165;DHT22;571;50.930;6.926;2023-08-30T13:25:27;18.60;99.90
1165;DHT22;571;50.930;6.926;2023-08-30T13:32:12;18.60;99.90
1165;DHT22;571;50.930;6.926;2023-08-30T13:35:06;18.60;99.90
1165;DHT22;571;50.930;6.926;2023-08-30T14:23:17;18.40;99.90
1165;DHT22;571;50.930;6.926;2023-08-30T14:26:04;18.30;99.90
1165;DHT22;571;50.930;6.926;2023-08-30T14:32:02;18.30;99.90
1165;DHT22;571;50.930;6.926;2023-08-30T14:39:06;18.10;99.90
1165;DHT22;571;50.930;6.926;2023-08-30T14:42:06;18.10;99.90
1165;DHT22;571;50.930;6.926;2023-08-30T14:45:18;18.00;99.90
1165;DHT22;571;50.930;6.926;2023-08-30T14:48:37;17.90;99.90
1165;DHT22;571;50.930;6.926;2023-08-30T14:51:29;17.90;99.90
1165;DHT22;571;50.930;6.926;2023-08-30T14:57:26;17.80;99.90
1165;DHT22;571;50.930;6.926;2023-08-30T15:00:08;17.80;99.90
1165;DHT22;571;50.930;6.926;2023-08-30T16:56:08;19.20;99.90
1165;DHT22;571;50.930;6.926;2023-08-30T16:58:54;19.20;99.90
1165;DHT22;571;50.930;6.926;2023-08-30T17:06:02;19.10;99.90
1165;DHT22;571;50.930;6.926;2023-08-30T17:08:02;19.00;99.90
1165;DHT22;571;50.930;6.926;2023-08-30T17:10:45;19.00;99.90
1165;DHT22;571;50.930;6.926;2023-08-30T17:13:36;19.00;99.90
1165;DHT22;571;50.930;6.926;2023-08-30T17:16:38;19.00;99.90
1165;DHT22;571;50.930;6.926;2023-08-30T17:19:34;19.00;99.90
1165;DHT22;571;50.930;6.926;2023-08-30T17:22:15;19.00;99.90
1165;DHT22;571;50.930;6.926;2023-08-30T17:24:42;18.90;99.90
1165;DHT22;571;50.930;6.926;2023-08-30T17:27:14;18.80;99.90
1165;DHT22;571;50.930;6.926;2023-08-30T17:29:45;18.90;99.90
1165;DHT22;571;50.930;6.926;2023-08-30T17:32:12;18.80;99.90
1165;DHT22;571;50.930;6.926;2023-08-30T17:34:41;18.90;99.90
1165;DHT22;571;50.930;6.926;2023-08-30T17:37:26;18.80;99.90
1165;DHT22;571;50.930;6.926;2023-08-30T17:40:13;18.80;99.90
1165;DHT22;571;50.930;6.926;2023-08-30T17:49:53;18.70;99.90
1165;DHT22;571;50.930;6.926;2023-08-30T17:52:24;18.70;99.90
1165;DHT22;571;50.930;6.926;2023-08-30T17:54:52;18.70;99.90
1165;DHT22;571;50.930;6.926;2023-08-30T17:57:26;18.70;99.90
1165;DHT22;571;50.930;6.926;2023-08-30T17:59:55;18.60;99.90
1165;DHT22;571;50.930;6.926;2023-08-30T18:02:22;18.70;99.90
1165;DHT22;571;50.930;6.926;2023-08-30T18:04:51;18.60;99.90
1165;DHT22;571;50.930;6.926;2023-08-30T18:07:18;18.60;99.90
1165;DHT22;571;50.930;6.926;2023-08-30T18:09:48;18.60;99.90
1165;DHT22;571;50.930;6.926;2023-08-30T18:12:15;18.50;99.90
1165;DHT22;571;50.930;6.926;2023-08-30T18:14:42;18.60;99.90
1165;DHT22;571;50.930;6.926;2023-08-30T18:17:13;18.40;99.90
1165;DHT22;571;50.930;6.926;2023-08-30T18:19:44;18.40;99.90
1165;DHT22;571;50.930;6.926;2023-08-30T18:22:15;18.30;99.90
1165;DHT22;571;50.930;6.926;2023-08-30T18:24:44;18.30;99.90
1165;DHT22;571;50.930;6.926;2023-08-30T18:27:12;18.10;99.90
1165;DHT22;571;50.930;6.926;2023-08-30T18:29:41;18.20;99.90
1165;DHT22;571;50.930;6.926;2023-08-30T18:32:10;18.10;99.90
1165;DHT22;571;50.930;6.926;2023-08-30T18:34:38;18.00;99.90
1165;DHT22;571;50.930;6.926;2023-08-30T18:37:05;18.00;99.90
1165;DHT22;571;50.930;6.926;2023-08-30T18:39:35;17.90;99.90
1165;DHT22;571;50.930;6.926;2023-08-30T18:42:03;17.90;99.90
1165;DHT22;571;50.930;6.926;2023-08-30T18:44:30;17.80;99.90
1165;DHT22;571;50.930;6.926;2023-08-30T18:46:58;17.80;99.90
1165;DHT22;571;50.930;6.926;2023-08-30T18:49:28;17.80;99.90
1165;DHT22;571;50.930;6.926;2023-08-30T18:51:56;17.70;99.90
1165;DHT22;571;50.930;6.926;2023-08-30T18:54:25;17.70;99.90
1165;DHT22;571;50.930;6.926;2023-08-30T18:56:55;17.70;99.90
1165;DHT22;571;50.930;6.926;2023-08-30T18:59:23;17.60;99.90
1165;DHT22;571;50.930;6.926;2023-08-30T19:01:52;17.60;99.90
1165;DHT22;571;50.930;6.926;2023-08-30T19:04:20;17.50;99.90
1165;DHT22;571;50.930;6.926;2023-08-30T19:06:54;17.50;99.90
1165;DHT22;571;50.930;6.926;2023-08-30T19:09:25;17.40;99.90
1165;DHT22;571;50.930;6.926;2023-08-30T19:11:54;17.40;99.90
1165;DHT22;571;50.930;6.926;2023-08-30T19:14:24;17.40;99.90
1165;DHT22;571;50.930;6.926;2023-08-30T19:16:57;17.30;99.90
1165;DHT22;571;50.930;6.926;2023-08-30T19:19:25;17.30;99.90
1165;DHT22;571;50.930;6.926;2023-08-30T19:21:53;17.20;99.90
1165;DHT22;571;50.930;6.926;2023-08-30T19:24:21;17.20;99.90
1165;DHT22;571;50.930;6.926;2023-08-30T19:26:51;17.10;99.90
1165;DHT22;571;50.930;6.926;2023-08-30T19:29:23;17.10;99.90
1165;DHT22;571;50.930;6.926;2023-08-30T19:31:57;17.00;99.90
1165;DHT22;571;50.930;6.926;2023-08-30T19:34:27;17.00;99.90
1165;DHT22;571;50.930;6.926;2023-08-30T19:37:05;17.00;99.90
1165;DHT22;571;50.930;6.926;2023-08-30T19:39:33;16.90;99.90
1165;DHT22;571;50.930;6.926;2023-08-30T19:42:01;16.90;99.90
1165;DHT22;571;50.930;6.926;2023-08-30T19:44:36;16.80;99.90
1165;DHT22;571;50.930;6.926;2023-08-30T19:47:04;16.80;99.90
1165;DHT22;571;50.930;6.926;2023-08-30T19:49:31;16.80;99.90
1165;DHT22;571;50.930;6.926;2023-08-30T19:52:02;16.70;99.90
1165;DHT22;571;50.930;6.926;2023-08-30T19:54:32;16.70;99.90
1165;DHT22;571;50.930;6.926;2023-08-30T19:56:59;16.60;99.90
1165;DHT22;571;50.930;6.926;2023-08-30T19:59:26;16.60;99.90
1165;DHT22;571;50.930;6.926;2023-08-30T20:01:54;16.60;99.90
1165;DHT22;571;50.930;6.926;2023-08-30T20:04:25;16.50;99.90
1165;DHT22;571;50.930;6.926;2023-08-30T20:06:52;16.50;99.90
1165;DHT22;571;50.930;6.926;2023-08-30T20:09:22;16.50;99.90
1165;DHT22;571;50.930;6.926;2023-08-30T20:11:49;16.40;99.90
1165;DHT22;571;50.930;6.926;2023-08-30T20:14:21;16.40;99.90
1165;DHT22;571;50.930;6.926;2023-08-30T20:16:54;16.40;99.90
1165;DHT22;571;50.930;6.926;2023-08-30T20:19:21;16.30;99.90
1165;DHT22;571;50.930;6.926;2023-08-30T20:21:48;16.30;99.90
1165;DHT22;571;50.930;6.926;2023-08-30T20:24:20;16.30;99.90
1165;DHT22;571;50.930;6.926;2023-08-30T20:26:48;16.20;99.90
1165;DHT22;571;50.930;6.926;2023-08-30T20:29:16;16.20;99.90
1165;DHT22;571;50.930;6.926;2023-08-30T20:31:44;16.20;99.90
1165;DHT22;571;50.930;6.926;2023-08-30T20:34:13;16.10;99.90
1165;DHT22;571;50.930;6.926;2023-08-30T20:36:45;16.10;99.90
1165;DHT22;571;50.930;6.926;2023-08-30T20:39:12;16.10;99.90
1165;DHT22;571;50.930;6.926;2023-08-30T20:41:39;16.00;99.90
1165;DHT22;571;50.930;6.926;2023-08-30T20:44:16;16.10;99.90
1165;DHT22;571;50.930;6.926;2023-08-30T20:46:48;16.00;99.90
1165;DHT22;571;50.930;6.926;2023-08-30T20:49:18;15.90;99.90
1165;DHT22;571;50.930;6.926;2023-08-30T20:51:45;15.90;99.90
1165;DHT22;571;50.930;6.926;2023-08-30T20:54:15;15.90;99.90
1165;DHT22;571;50.930;6.926;2023-08-30T20:56:43;15.90;99.90
1165;DHT22;571;50.930;6.926;2023-08-30T20:59:12;15.80;99.90
1165;DHT22;571;50.930;6.926;2023-08-30T21:01:41;15.80;99.90
1165;DHT22;571;50.930;6.926;2023-08-30T21:04:11;15.80;99.90
1165;DHT22;571;50.930;6.926;2023-08-30T21:06:40;15.80;99.90
1165;DHT22;571;50.930;6.926;2023-08-30T21:09:10;15.70;99.90
1165;DHT22;571;50.930;6.926;2023-08-30T21:11:37;15.80;99.90
1165;DHT22;571;50.930;6.926;2023-08-30T21:14:07;15.70;99.90
1165;DHT22;571;50.930;6.926;2023-08-30T21:16:35;15.70;99.90
1165;DHT22;571;50.930;6.926;2023-08-30T21:19:02;15.70;99.90
1165;DHT22;571;50.930;6.926;2023-08-30T21:21:32;15.70;99.90
1165;DHT22;571;50.930;6.926;2023-08-30T21:24:01;15.70;99.90
1165;DHT22;571;50.930;6.926;2023-08-30T21:26:32;15.70;99.90
1165;DHT22;571;50.930;6.926;2023-08-30T21:29:00;15.60;99.90
1165;DHT22;571;50.930;6.926;2023-08-30T21:31:27;15.60;99.90
1165;DHT22;571;50.930;6.926;2023-08-30T21:33:54;15.60;99.90
1165;DHT22;571;50.930;6.926;2023-08-30T21:36:23;15.60;99.90
1165;DHT22;571;50.930;6.926;2023-08-30T21:38:54;15.60;99.90
1165;DHT22;571;50.930;6.926;2023-08-30T21:41:23;15.60;99.90
1165;DHT22;571;50.930;6.926;2023-08-30T21:43:50;15.50;99.90
1165;DHT22;571;50.930;6.926;2023-08-30T21:46:17;15.50;99.90
1165;DHT22;571;50.930;6.926;2023-08-30T21:48:45;15.50;99.90
1165;DHT22;571;50.930;6.926;2023-08-30T21:51:14;15.50;99.90
1165;DHT22;571;50.930;6.926;2023-08-30T21:53:44;15.50;99.90
1165;DHT22;571;50.930;6.926;2023-08-30T21:56:14;15.50;99.90
1165;DHT22;571;50.930;6.926;2023-08-30T21:58:44;15.50;99.90
